Time;durP1;ratioP1;P1;durP2;ratioP2;P2;SDS_P1;SDS_P2;PMS_P1;PMS_P2;Temp;Humidity;BMP_temperature;BMP_pressure;BME280_temperature;BME280_humidity;BME280_pressure;Samples;Min_cycle;Max_cycle;Signal;HPM_P1;HPM_P2
2023/03/01 00:00:38;;;;;;;25.33;12.23;;;;;;;-0.62;100.00;96016.59;5005417;28;20034;-74
2023/03/01 00:03:20;;;;;;;25.85;12.82;;;;;;;-0.64;100.00;96008.22;5006928;28;20057;-74
2023/03/01 00:05:46;;;;;;;26.83;12.20;;;;;;;-0.63;100.00;96006.44;5008201;28;20033;-74
2023/03/01 00:08:12;;;;;;;22.55;12.00;;;;;;;-0.62;100.00;96001.06;5009194;28;20120;-74
2023/03/01 00:10:38;;;;;;;27.25;13.65;;;;;;;-0.65;100.00;96006.63;5006562;28;20099;-74
2023/03/01 00:13:05;;;;;;;26.42;12.60;;;;;;;-0.66;100.00;95994.69;5005748;28;20541;-74
2023/03/01 00:15:31;;;;;;;24.85;12.18;;;;;;;-0.63;100.00;95999.50;5008169;28;20100;-74
2023/03/01 00:17:57;;;;;;;27.23;13.20;;;;;;;-0.69;100.00;96005.38;5009719;28;20046;-74
2023/03/01 00:20:23;;;;;;;26.98;13.65;;;;;;;-0.63;100.00;95998.66;5005074;28;20042;-74
2023/03/01 00:22:48;;;;;;;24.95;12.55;;;;;;;-0.64;100.00;96004.84;5009113;28;20048;-75
2023/03/01 00:25:14;;;;;;;31.60;13.30;;;;;;;-0.72;100.00;96001.41;5007471;28;20556;-75
2023/03/01 00:27:39;;;;;;;28.90;13.02;;;;;;;-0.70;100.00;96001.22;5008730;28;20088;-75
2023/03/01 00:30:06;;;;;;;30.27;12.77;;;;;;;-0.61;100.00;96001.88;5003353;28;20046;-75
2023/03/01 00:32:31;;;;;;;25.70;12.07;;;;;;;-0.62;100.00;96001.06;5005725;28;20034;-75
2023/03/01 00:34:57;;;;;;;30.90;13.32;;;;;;;-0.66;100.00;95999.06;5009198;28;20042;-75
2023/03/01 00:37:23;;;;;;;20.55;11.40;;;;;;;-0.68;100.00;95986.31;5007707;28;20053;-75
2023/03/01 00:39:49;;;;;;;31.20;13.18;;;;;;;-0.61;100.00;95996.72;5006820;28;20042;-75
2023/03/01 00:42:16;;;;;;;28.63;13.18;;;;;;;-0.67;100.00;95998.25;5003960;28;20037;-75
2023/03/01 00:44:42;;;;;;;25.83;12.45;;;;;;;-0.76;100.00;95989.03;5008359;28;20100;-75
2023/03/01 00:47:07;;;;;;;25.35;12.48;;;;;;;-0.65;100.00;95991.09;5009890;28;20421;-75
2023/03/01 00:49:34;;;;;;;25.48;12.38;;;;;;;-0.71;100.00;95984.91;5005305;28;20116;-75
2023/03/01 00:51:59;;;;;;;25.00;12.48;;;;;;;-0.75;100.00;95980.28;5007601;28;20092;-74
2023/03/01 00:54:25;;;;;;;24.77;12.93;;;;;;;-0.64;100.00;95982.38;5009259;28;20073;-75
2023/03/01 00:56:50;;;;;;;26.27;12.98;;;;;;;-0.69;100.00;95979.53;5008511;28;20049;-74
2023/03/01 00:59:16;;;;;;;25.88;13.13;;;;;;;-0.66;100.00;95980.97;5006162;28;20081;-75
2023/03/01 01:01:41;;;;;;;24.92;12.50;;;;;;;-0.71;100.00;95977.13;5006539;28;20041;-75
2023/03/01 01:04:11;;;;;;;25.75;13.20;;;;;;;-0.68;100.00;95975.97;5005648;28;20453;-74
2023/03/01 01:06:43;;;;;;;26.15;12.18;;;;;;;-0.66;100.00;95968.84;5005374;28;20056;-75
2023/03/01 01:09:16;;;;;;;26.95;13.20;;;;;;;-0.68;100.00;95970.03;5022779;28;20097;-74
2023/03/01 01:11:46;;;;;;;26.17;13.38;;;;;;;-0.67;100.00;95969.03;5000594;28;20095;-75
2023/03/01 01:14:13;;;;;;;24.45;12.20;;;;;;;-0.74;100.00;95966.38;5008392;28;20452;-75
2023/03/01 01:16:39;;;;;;;23.98;11.90;;;;;;;-0.77;100.00;95961.59;5009553;28;20064;-75
2023/03/01 01:19:04;;;;;;;25.25;12.45;;;;;;;-0.77;100.00;95943.50;5002723;28;20046;-75
2023/03/01 01:21:31;;;;;;;27.25;12.85;;;;;;;-0.71;100.00;95953.09;5006648;28;20050;-75
2023/03/01 01:23:57;;;;;;;25.90;12.60;;;;;;;-0.78;100.00;95940.09;5008069;28;20042;-74
2023/03/01 01:26:26;;;;;;;25.52;12.93;;;;;;;-0.80;100.00;95951.63;5008912;28;20053;-75
2023/03/01 01:28:52;;;;;;;28.83;13.57;;;;;;;-0.73;100.00;95952.50;5005303;28;21630;-75
2023/03/01 01:31:18;;;;;;;24.60;13.05;;;;;;;-0.78;100.00;95944.47;5007468;28;20034;-73
2023/03/01 01:33:45;;;;;;;24.45;12.60;;;;;;;-0.82;100.00;95948.44;5007353;28;20038;-73
2023/03/01 01:36:11;;;;;;;24.13;12.50;;;;;;;-0.87;100.00;95939.44;5007983;28;20125;-73
2023/03/01 01:38:38;;;;;;;27.08;13.35;;;;;;;-0.77;100.00;95940.94;5005480;28;20038;-73
2023/03/01 01:41:04;;;;;;;22.42;12.20;;;;;;;-0.81;100.00;95937.13;5007195;28;20112;-74
2023/03/01 01:43:34;;;;;;;26.67;13.40;;;;;;;-0.77;100.00;95930.59;5003986;28;20057;-73
2023/03/01 01:46:24;;;;;;;28.65;13.55;;;;;;;-0.83;100.00;95926.97;5006157;28;20034;-73
2023/03/01 01:48:56;;;;;;;26.63;12.85;;;;;;;-0.83;100.00;95923.56;4997709;28;20058;-73
2023/03/01 01:51:27;;;;;;;28.88;12.25;;;;;;;-0.83;100.00;95920.97;5006247;28;20049;-73
2023/03/01 01:54:00;;;;;;;27.30;13.15;;;;;;;-0.84;100.00;95919.41;5006171;28;20038;-73
2023/03/01 01:56:28;;;;;;;27.80;12.50;;;;;;;-0.85;100.00;95920.38;5009357;28;20037;-73
2023/03/01 01:58:55;;;;;;;27.95;13.02;;;;;;;-0.83;100.00;95916.63;5008078;28;20049;-73
2023/03/01 02:01:20;;;;;;;21.73;11.63;;;;;;;-0.81;100.00;95913.84;5008504;28;20045;-73
2023/03/01 02:03:47;;;;;;;25.38;13.45;;;;;;;-0.90;100.00;95911.41;5004408;28;20045;-73
2023/03/01 02:06:30;;;;;;;26.73;12.35;;;;;;;-0.77;100.00;95909.91;5005980;28;20065;-73
2023/03/01 02:09:04;;;;;;;25.30;12.65;;;;;;;-0.80;100.00;95910.28;5008175;28;20038;-73
2023/03/01 02:11:32;;;;;;;25.73;13.00;;;;;;;-0.83;100.00;95910.63;5006207;28;20030;-73
2023/03/01 02:13:57;;;;;;;28.02;12.93;;;;;;;-0.88;100.00;95914.63;5006218;28;20042;-73
2023/03/01 02:16:23;;;;;;;25.02;12.43;;;;;;;-0.84;100.00;95914.22;5006877;28;20050;-74
2023/03/01 02:18:50;;;;;;;25.63;13.38;;;;;;;-0.80;100.00;95905.13;5007713;28;20046;-73
2023/03/01 02:21:34;;;;;;;29.33;13.60;;;;;;;-0.84;100.00;95906.47;5005222;28;20069;-74
2023/03/01 02:24:07;;;;;;;27.10;13.20;;;;;;;-0.93;100.00;95906.59;5006220;28;20045;-73
2023/03/01 02:26:45;;;;;;;24.95;12.27;;;;;;;-0.88;100.00;95903.47;5006115;28;20595;-73
2023/03/01 02:29:11;;;;;;;28.15;13.15;;;;;;;-0.96;100.00;95901.81;5024082;28;20428;-73
2023/03/01 02:31:42;;;;;;;27.00;12.70;;;;;;;-0.84;100.00;95898.72;5008856;28;20045;-73
2023/03/01 02:34:11;;;;;;;28.80;12.65;;;;;;;-0.82;100.00;95909.66;5008798;28;20046;-73
2023/03/01 02:36:57;;;;;;;26.30;13.90;;;;;;;-0.91;100.00;95899.47;5010236;28;20038;-73
2023/03/01 02:39:30;;;;;;;23.50;13.30;;;;;;;-0.94;100.00;95894.66;5011313;28;20046;-73
2023/03/01 02:41:57;;;;;;;25.75;13.02;;;;;;;-0.87;100.00;95900.69;5010575;28;20042;-73
2023/03/01 02:44:23;;;;;;;25.67;12.63;;;;;;;-0.88;100.00;95896.53;5012172;28;20050;-73
2023/03/01 02:46:51;;;;;;;27.05;12.13;;;;;;;-0.96;100.00;95896.66;5008429;28;20050;-73
2023/03/01 02:49:30;;;;;;;22.10;10.82;;;;;;;-0.90;100.00;95895.91;5010401;28;20034;-73
2023/03/01 02:52:26;;;;;;;28.08;13.27;;;;;;;-0.90;100.00;95901.06;5010950;28;20034;-73
2023/03/01 02:55:00;;;;;;;27.35;12.70;;;;;;;-1.00;100.00;95890.25;5009614;28;20034;-73
2023/03/01 02:57:27;;;;;;;24.65;12.63;;;;;;;-0.96;100.00;95896.66;5008089;28;20047;-73
2023/03/01 02:59:56;;;;;;;28.23;13.30;;;;;;;-0.96;100.00;95891.47;5011421;28;20054;-74
2023/03/01 03:02:35;;;;;;;26.58;13.43;;;;;;;-0.96;100.00;95891.47;5011182;28;20061;-73
2023/03/01 03:05:26;;;;;;;23.40;12.05;;;;;;;-1.00;100.00;95890.25;5007845;28;20117;-73
2023/03/01 03:07:52;;;;;;;28.95;13.25;;;;;;;-0.99;100.00;95891.88;5002804;28;20054;-73
2023/03/01 03:10:27;;;;;;;27.90;12.48;;;;;;;-1.08;100.00;95887.78;5010682;28;20073;-74
2023/03/01 03:13:06;;;;;;;24.25;12.93;;;;;;;-1.07;100.00;95894.56;5009018;28;20045;-73
2023/03/01 03:15:35;;;;;;;33.20;13.05;;;;;;;-1.04;100.00;95894.19;5009501;28;20386;-73
2023/03/01 03:18:03;;;;;;;25.27;13.60;;;;;;;-1.02;100.00;95892.25;5011369;28;20037;-73
2023/03/01 03:20:29;;;;;;;26.38;12.65;;;;;;;-1.04;100.00;95894.19;5007133;28;20057;-73
2023/03/01 03:22:58;;;;;;;24.73;12.57;;;;;;;-1.13;100.00;95890.16;5011589;28;20038;-73
2023/03/01 03:25:25;;;;;;;24.40;13.18;;;;;;;-1.07;100.00;95885.03;5009828;28;20414;-73
2023/03/01 03:27:58;;;;;;;27.70;13.60;;;;;;;-1.05;100.00;95882.25;5010394;28;20432;-73
2023/03/01 03:30:29;;;;;;;31.13;13.30;;;;;;;-1.04;100.00;95881.28;5004293;28;20048;-73
2023/03/01 03:32:56;;;;;;;26.33;13.07;;;;;;;-1.08;100.00;95888.63;5008642;28;20030;-73
2023/03/01 03:35:33;;;;;;;23.50;12.55;;;;;;;-1.15;100.00;95892.09;5010039;28;20533;-74
2023/03/01 03:38:01;;;;;;;27.23;13.15;;;;;;;-1.13;100.00;95885.00;5005797;28;20042;-73
2023/03/01 03:40:31;;;;;;;31.30;13.60;;;;;;;-1.16;100.00;95880.19;5009815;28;20046;-74
2023/03/01 03:42:56;;;;;;;26.92;12.25;;;;;;;-1.16;100.00;95881.00;5005660;28;20044;-74
2023/03/01 03:45:22;;;;;;;27.67;13.80;;;;;;;-1.17;100.00;95873.44;5010212;28;20149;-74
2023/03/01 03:47:47;;;;;;;26.77;12.73;;;;;;;-1.15;100.00;95877.44;5008332;28;20076;-74
2023/03/01 03:50:15;;;;;;;24.30;12.32;;;;;;;-1.09;100.00;95875.88;5007065;28;20050;-74
2023/03/01 03:52:41;;;;;;;29.00;13.07;;;;;;;-1.15;100.00;95877.44;5011332;28;20064;-73
2023/03/01 03:55:09;;;;;;;24.77;13.07;;;;;;;-1.22;100.00;95867.03;5006950;28;20041;-74
2023/03/01 03:57:35;;;;;;;26.73;13.35;;;;;;;-1.19;100.00;95870.22;5007710;28;20041;-74
2023/03/01 04:00:04;;;;;;;25.40;12.93;;;;;;;-1.23;100.00;95862.84;5007711;28;20125;-74
2023/03/01 04:02:29;;;;;;;29.73;12.73;;;;;;;-1.19;100.00;95859.88;5006732;28;20109;-75
2023/03/01 04:04:55;;;;;;;25.02;13.05;;;;;;;-1.17;100.00;95863.09;5004440;28;20502;-74
2023/03/01 04:07:20;;;;;;;29.38;13.10;;;;;;;-1.29;100.00;95850.69;5008134;28;20042;-74
2023/03/01 04:09:46;;;;;;;27.55;12.43;;;;;;;-1.20;100.00;95853.16;5009124;28;20054;-74
2023/03/01 04:12:12;;;;;;;25.38;12.38;;;;;;;-1.28;100.00;95852.28;5006394;28;20034;-74
2023/03/01 04:14:37;;;;;;;28.67;13.23;;;;;;;-1.22;100.00;95856.72;5008951;28;20038;-74
2023/03/01 04:17:05;;;;;;;26.55;13.63;;;;;;;-1.29;100.00;95850.69;5009199;28;20053;-75
2023/03/01 04:19:35;;;;;;;27.45;13.20;;;;;;;-1.25;100.00;95854.50;5008272;28;21687;-74
2023/03/01 04:22:09;;;;;;;27.02;13.18;;;;;;;-1.35;100.00;95856.59;5003561;28;20409;-74
2023/03/01 04:24:35;;;;;;;23.23;12.67;;;;;;;-1.20;100.00;95853.16;5007885;28;20453;-74
2023/03/01 04:27:01;;;;;;;25.50;13.18;;;;;;;-1.33;100.00;95857.19;5008825;28;20049;-74
2023/03/01 04:29:27;;;;;;;27.92;13.55;;;;;;;-1.33;100.00;95849.47;5009003;28;20053;-74
2023/03/01 04:31:52;;;;;;;25.45;12.48;;;;;;;-1.29;100.00;95853.28;5003879;28;20037;-74
2023/03/01 04:34:18;;;;;;;25.65;13.52;;;;;;;-1.29;100.00;95855.84;5002730;28;20045;-74
2023/03/01 04:36:44;;;;;;;26.70;14.02;;;;;;;-1.37;100.00;95848.22;5008396;28;20520;-74
2023/03/01 04:39:12;;;;;;;31.58;12.93;;;;;;;-1.47;100.00;95843.38;5006842;28;20650;-74
2023/03/01 04:41:39;;;;;;;27.70;12.73;;;;;;;-1.40;100.00;95843.44;5004923;28;20050;-74
2023/03/01 04:44:05;;;;;;;29.02;14.30;;;;;;;-1.41;100.00;95841.84;5007478;28;20057;-74
2023/03/01 04:46:30;;;;;;;27.80;12.00;;;;;;;-1.44;100.00;95850.78;5008466;28;20042;-74
2023/03/01 04:48:56;;;;;;;25.30;13.30;;;;;;;-1.37;100.00;95848.22;5010191;28;20073;-73
2023/03/01 04:51:22;;;;;;;28.38;14.25;;;;;;;-1.36;100.00;95844.66;5008269;28;20046;-73
2023/03/01 04:53:47;;;;;;;28.92;14.15;;;;;;;-1.46;100.00;95844.19;5009876;28;20030;-73
2023/03/01 04:56:14;;;;;;;25.52;12.23;;;;;;;-1.48;100.00;95846.13;5008977;28;20057;-73
2023/03/01 04:58:39;;;;;;;26.88;13.70;;;;;;;-1.43;100.00;95843.81;5008785;28;20037;-73
2023/03/01 05:01:17;;;;;;;29.50;13.75;;;;;;;-1.48;100.00;95835.81;5007513;28;20061;-74
2023/03/01 05:03:49;;;;;;;24.15;12.40;;;;;;;-1.47;100.00;95837.41;5006151;28;20042;-74
2023/03/01 05:06:15;;;;;;;27.10;13.38;;;;;;;-1.55;100.00;95842.69;5002848;28;20038;-74
2023/03/01 05:08:42;;;;;;;30.35;14.27;;;;;;;-1.50;100.00;95842.97;5007870;28;20049;-74
2023/03/01 05:11:08;;;;;;;26.73;13.98;;;;;;;-1.55;100.00;95835.78;5006490;28;20045;-74
2023/03/01 05:13:38;;;;;;;29.02;13.82;;;;;;;-1.49;100.00;95839.41;5007758;28;20038;-74
2023/03/01 05:16:05;;;;;;;27.52;13.55;;;;;;;-1.58;100.00;95836.13;5008456;28;20049;-74
2023/03/01 05:18:33;;;;;;;27.77;12.45;;;;;;;-1.53;100.00;95835.59;5005451;28;20041;-74
2023/03/01 05:21:10;;;;;;;26.08;13.38;;;;;;;-1.68;100.00;95827.88;5005924;28;20048;-74
2023/03/01 05:23:37;;;;;;;23.77;12.23;;;;;;;-1.66;100.00;95834.47;5008042;28;20073;-74
2023/03/01 05:26:05;;;;;;;25.00;13.25;;;;;;;-1.76;100.00;95828.81;5009657;28;20034;-74
2023/03/01 05:28:32;;;;;;;28.08;13.75;;;;;;;-1.73;100.00;95833.59;5004827;28;20453;-74
2023/03/01 05:30:57;;;;;;;29.73;13.57;;;;;;;-1.68;100.00;95831.28;5010026;28;20037;-74
2023/03/01 05:33:24;;;;;;;33.20;13.82;;;;;;;-1.72;100.00;95829.25;5005566;28;20076;-74
2023/03/01 05:35:51;;;;;;;28.75;13.07;;;;;;;-1.68;100.00;95826.13;5007171;28;20186;-74
2023/03/01 05:38:17;;;;;;;26.02;13.13;;;;;;;-1.71;100.00;95821.34;5009234;28;20122;-74
2023/03/01 05:40:45;;;;;;;30.33;14.48;;;;;;;-1.62;100.00;95820.22;5007353;28;20038;-74
2023/03/01 05:43:12;;;;;;;26.27;13.82;;;;;;;-1.64;100.00;95824.78;5006220;28;20057;-74
2023/03/01 05:45:38;;;;;;;31.65;13.85;;;;;;;-1.69;100.00;95819.34;5009843;28;20037;-74
2023/03/01 05:48:05;;;;;;;30.08;14.55;;;;;;;-1.76;100.00;95823.66;5009494;28;20054;-74
2023/03/01 05:50:39;;;;;;;29.25;14.00;;;;;;;-1.72;100.00;95819.72;5006665;28;20104;-74
2023/03/01 05:53:07;;;;;;;31.27;13.10;;;;;;;-1.78;100.00;95810.13;5006908;28;20049;-74
2023/03/01 05:55:34;;;;;;;26.58;13.88;;;;;;;-1.70;100.00;95810.00;5007568;28;20057;-74
2023/03/01 05:58:01;;;;;;;29.80;13.93;;;;;;;-1.66;100.00;95821.56;5004458;28;20045;-74
2023/03/01 06:00:29;;;;;;;27.05;12.80;;;;;;;-1.77;100.00;95822.06;5002216;28;20034;-74
2023/03/01 06:02:56;;;;;;;23.65;13.13;;;;;;;-1.74;100.00;95824.25;5009309;28;20049;-74
2023/03/01 06:05:22;;;;;;;27.88;13.38;;;;;;;-1.68;100.00;95823.53;5012425;28;20156;-74
2023/03/01 06:07:49;;;;;;;31.00;13.43;;;;;;;-1.76;100.00;95823.66;4996105;28;20046;-74
2023/03/01 06:10:16;;;;;;;27.45;14.23;;;;;;;-1.72;100.00;95840.38;5012042;28;20045;-75
2023/03/01 06:12:43;;;;;;;28.52;13.45;;;;;;;-1.76;100.00;95839.13;5005456;28;20038;-73
2023/03/01 06:15:10;;;;;;;27.25;12.55;;;;;;;-1.66;100.00;95831.88;5020887;28;20567;-74
2023/03/01 06:17:40;;;;;;;32.20;14.30;;;;;;;-1.76;100.00;95849.47;5014223;28;20038;-73
2023/03/01 06:20:11;;;;;;;27.60;12.73;;;;;;;-1.79;100.00;95839.50;5009629;28;20045;-74
2023/03/01 06:22:37;;;;;;;28.15;14.05;;;;;;;-1.88;100.00;95836.25;5004527;28;20588;-74
2023/03/01 06:25:04;;;;;;;32.53;14.35;;;;;;;-1.75;100.00;95840.75;5007636;28;20053;-74
2023/03/01 06:27:29;;;;;;;26.42;13.30;;;;;;;-1.78;100.00;95843.66;5011888;28;20152;-74
2023/03/01 06:29:55;;;;;;;26.33;13.80;;;;;;;-1.60;100.00;95836.31;5010658;28;20045;-74
2023/03/01 06:32:20;;;;;;;27.27;13.25;;;;;;;-1.71;100.00;95836.00;5009732;28;20567;-74
2023/03/01 06:34:46;;;;;;;28.42;13.38;;;;;;;-1.79;100.00;95839.50;5009116;28;20038;-73
2023/03/01 06:37:11;;;;;;;26.05;11.57;;;;;;;-1.89;100.00;95841.59;5012509;28;20045;-75
2023/03/01 06:39:37;;;;;;;28.13;13.93;;;;;;;-1.86;100.00;95838.66;5012228;28;20038;-76
2023/03/01 06:42:03;;;;;;;29.42;13.02;;;;;;;-1.75;100.00;95840.75;5007825;28;20054;-76
2023/03/01 06:44:28;;;;;;;34.70;13.85;;;;;;;-1.81;100.00;95841.47;5008494;28;20045;-77
2023/03/01 06:46:54;;;;;;;28.88;13.85;;;;;;;-1.74;100.00;95837.16;5012419;28;20045;-76
2023/03/01 06:49:20;;;;;;;31.55;13.73;;;;;;;-1.74;100.00;95837.16;5014709;28;20045;-77
2023/03/01 06:51:46;;;;;;;31.17;13.73;;;;;;;-1.75;100.00;95840.75;5007998;28;20038;-75
2023/03/01 06:54:12;;;;;;;34.03;14.00;;;;;;;-1.74;100.00;95834.59;5011448;28;20038;-78
2023/03/01 06:56:38;;;;;;;28.67;13.10;;;;;;;-1.79;100.00;95834.34;5012685;28;20042;-76
2023/03/01 06:59:04;;;;;;;29.60;14.30;;;;;;;-1.67;100.00;95832.88;5007213;28;20049;-78
2023/03/01 07:01:30;;;;;;;32.42;14.23;;;;;;;-1.86;100.00;95838.66;5010753;28;20042;-77
2023/03/01 07:03:56;;;;;;;29.35;13.68;;;;;;;-1.77;100.00;95845.28;5006492;28;20470;-76
2023/03/01 07:06:22;;;;;;;30.58;13.93;;;;;;;-1.82;100.00;95834.72;5007320;28;20069;-76
2023/03/01 07:08:47;;;;;;;40.00;14.88;;;;;;;-1.75;100.00;95841.53;5012926;28;20448;-77
2023/03/01 07:11:14;;;;;;;28.88;12.88;;;;;;;-1.76;100.00;95844.31;5012033;28;20054;-76
2023/03/01 07:13:39;;;;;;;32.25;14.25;;;;;;;-1.66;100.00;95831.88;5011287;28;20038;-76
2023/03/01 07:16:05;;;;;;;34.35;12.98;;;;;;;-1.70;100.00;95838.41;5017595;28;20088;-77
2023/03/01 07:18:31;;;;;;;28.63;13.20;;;;;;;-1.79;100.00;95839.50;5016778;28;20068;-76
2023/03/01 07:20:56;;;;;;;69.22;16.58;;;;;;;-1.67;100.00;95827.69;5011350;28;20038;-77
2023/03/01 07:23:22;;;;;;;52.03;14.23;;;;;;;-1.60;100.00;95827.78;5016327;28;20048;-77
2023/03/01 07:25:53;;;;;;;29.85;13.52;;;;;;;-1.59;100.00;95830.16;5018714;28;20041;-77
2023/03/01 07:28:18;;;;;;;29.98;13.75;;;;;;;-1.63;100.00;95834.09;5010999;28;20050;-76
2023/03/01 07:30:44;;;;;;;28.52;12.60;;;;;;;-1.65;100.00;95825.75;5013847;28;20052;-76
2023/03/01 07:33:10;;;;;;;33.72;14.23;;;;;;;-1.59;100.00;95825.00;5012030;28;20076;-76
2023/03/01 07:35:35;;;;;;;30.88;14.13;;;;;;;-1.60;100.00;95828.56;5011119;28;20252;-76
2023/03/01 07:38:01;;;;;;;30.88;13.35;;;;;;;-1.49;100.00;95818.75;5000356;28;20041;-77
2023/03/01 07:40:26;;;;;;;35.85;15.05;;;;;;;-1.48;100.00;95822.91;5007122;28;20046;-76
2023/03/01 07:42:58;;;;;;;37.55;14.10;;;;;;;-1.36;100.00;95818.84;5005847;28;20037;-75
2023/03/01 07:45:25;;;;;;;27.90;13.43;;;;;;;-1.47;100.00;95821.94;5011814;28;20057;-75
2023/03/01 07:47:51;;;;;;;31.75;13.75;;;;;;;-1.40;100.00;95820.22;5011609;28;20099;-75
2023/03/01 07:50:18;;;;;;;30.50;14.15;;;;;;;-1.37;100.00;95817.25;5005351;28;20736;-75
2023/03/01 07:52:47;;;;;;;26.83;13.20;;;;;;;-1.33;100.00;95833.97;5012823;28;20050;-74
2023/03/01 07:55:13;;;;;;;30.08;14.65;;;;;;;-1.35;100.00;95812.72;5009528;28;20045;-75
2023/03/01 07:57:39;;;;;;;33.38;14.75;;;;;;;-1.36;100.00;95808.53;5008075;28;20069;-75
2023/03/01 08:00:06;;;;;;;27.77;14.65;;;;;;;-1.38;100.00;95815.63;5006800;28;20601;-74
2023/03/01 08:02:31;;;;;;;29.45;14.35;;;;;;;-1.30;100.00;95812.94;5010889;28;20053;-75
2023/03/01 08:04:57;;;;;;;36.53;15.52;;;;;;;-1.23;100.00;95808.63;5011835;28;20321;-75
2023/03/01 08:07:22;;;;;;;30.35;13.35;;;;;;;-1.29;100.00;95811.97;5012486;28;20050;-74
2023/03/01 08:09:48;;;;;;;30.05;14.55;;;;;;;-1.35;100.00;95810.13;5012438;28;20068;-74
2023/03/01 08:12:16;;;;;;;30.08;13.95;;;;;;;-1.26;100.00;95809.00;5004752;28;20050;-74
2023/03/01 08:14:41;;;;;;;28.48;13.57;;;;;;;-1.28;100.00;95810.97;5011539;28;20041;-74
2023/03/01 08:17:07;;;;;;;29.23;14.07;;;;;;;-1.17;100.00;95816.63;5012606;28;20530;-74
2023/03/01 08:19:34;;;;;;;29.58;13.15;;;;;;;-1.06;100.00;95808.34;5011376;28;20042;-75
2023/03/01 08:22:02;;;;;;;29.77;14.05;;;;;;;-1.22;100.00;95805.06;5008571;28;20513;-74
2023/03/01 08:24:28;;;;;;;34.03;14.52;;;;;;;-1.12;100.00;95806.50;5010553;28;20046;-74
2023/03/01 08:26:53;;;;;;;29.65;13.82;;;;;;;-1.17;100.00;95801.13;5012470;28;20056;-74
2023/03/01 08:29:19;;;;;;;30.42;13.88;;;;;;;-0.97;100.00;95802.03;5005088;28;20057;-74
2023/03/01 08:31:45;;;;;;;34.47;14.68;;;;;;;-1.09;100.00;95808.72;5006314;28;20037;-75
2023/03/01 08:34:13;;;;;;;27.92;12.75;;;;;;;-1.07;100.00;95807.53;5004508;28;20707;-73
2023/03/01 08:36:41;;;;;;;28.85;13.65;;;;;;;-0.99;100.00;95814.34;5003411;28;20049;-74
2023/03/01 08:39:08;;;;;;;30.17;13.52;;;;;;;-0.98;100.00;95804.81;5011663;28;20468;-74
2023/03/01 08:41:34;;;;;;;33.03;14.05;;;;;;;-0.90;100.00;95797.72;5010800;28;20454;-74
2023/03/01 08:44:00;;;;;;;29.77;13.85;;;;;;;-0.99;100.00;95793.69;5006977;28;20044;-75
2023/03/01 08:46:26;;;;;;;30.58;15.07;;;;;;;-0.93;100.00;95786.97;5011362;28;20061;-74
2023/03/01 08:48:52;;;;;;;32.33;14.57;;;;;;;-0.81;100.00;95789.81;5011452;28;20084;-74
2023/03/01 08:51:19;;;;;;;27.92;13.88;;;;;;;-0.89;100.00;95773.47;5006274;28;20058;-74
2023/03/01 08:53:45;;;;;;;28.15;13.38;;;;;;;-0.89;100.00;95788.97;5010271;28;20038;-74
2023/03/01 08:56:11;;;;;;;32.20;14.52;;;;;;;-0.81;100.00;95792.41;5010324;28;20049;-74
2023/03/01 08:58:37;;;;;;;32.08;13.90;;;;;;;-0.76;100.00;95792.59;5002712;28;20042;-74
2023/03/01 09:01:10;;;;;;;32.30;15.07;;;;;;;-0.66;100.00;95790.50;5006976;28;20506;-74
2023/03/01 09:03:36;;;;;;;35.45;14.80;;;;;;;-0.61;100.00;95779.56;5006779;28;20038;-74
2023/03/01 09:06:04;;;;;;;32.25;14.55;;;;;;;-0.64;100.00;95785.13;5009316;28;20080;-75
2023/03/01 09:08:30;;;;;;;28.17;14.73;;;;;;;-0.40;100.00;95786.44;5010204;28;20528;-75
2023/03/01 09:10:56;;;;;;;37.00;15.45;;;;;;;-0.29;100.00;95783.25;5009029;28;20034;-74
2023/03/01 09:13:27;;;;;;;29.48;14.38;;;;;;;-0.46;100.00;95776.84;5007434;28;20700;-74
2023/03/01 09:15:52;;;;;;;29.42;14.15;;;;;;;-0.36;100.00;95777.28;5009794;28;20585;-75
2023/03/01 09:18:18;;;;;;;28.58;14.85;;;;;;;-0.40;100.00;95776.09;5008542;28;20081;-74
2023/03/01 09:20:43;;;;;;;28.02;14.05;;;;;;;-0.41;100.00;95772.69;5009248;28;20425;-74
2023/03/01 09:23:09;;;;;;;32.65;15.45;;;;;;;-0.36;100.00;95769.53;5009624;28;20421;-75
2023/03/01 09:25:34;;;;;;;30.05;14.05;;;;;;;-0.02;100.00;95773.00;5009707;28;20041;-74
2023/03/01 09:28:00;;;;;;;34.53;15.20;;;;;;;-0.08;100.00;95763.44;5008086;28;20559;-74
2023/03/01 09:30:26;;;;;;;31.13;14.23;;;;;;;0.11;100.00;95762.66;5009183;28;20052;-74
2023/03/01 09:32:52;;;;;;;33.90;14.07;;;;;;;0.00;100.00;95768.44;5003389;28;20034;-74
2023/03/01 09:35:19;;;;;;;29.42;13.68;;;;;;;-0.07;100.00;95767.59;5008739;28;20041;-74
2023/03/01 09:37:45;;;;;;;34.00;15.23;;;;;;;0.04;100.00;95761.88;5008869;28;20037;-73
2023/03/01 09:40:17;;;;;;;35.60;14.65;;;;;;;0.17;100.00;95761.91;5010565;28;20406;-74
2023/03/01 09:42:53;;;;;;;28.67;13.30;;;;;;;0.22;100.00;95768.28;5003739;28;20041;-74
2023/03/01 09:45:29;;;;;;;34.35;15.02;;;;;;;0.19;100.00;95763.47;5007950;28;20056;-74
2023/03/01 09:47:55;;;;;;;37.95;15.00;;;;;;;0.47;100.00;95761.50;5010225;28;20045;-75
2023/03/01 09:50:22;;;;;;;28.75;14.25;;;;;;;0.21;100.00;95764.09;5003734;28;20054;-75
2023/03/01 09:53:06;;;;;;;31.25;14.68;;;;;;;0.50;100.00;95765.50;5008304;28;20038;-74
2023/03/01 09:55:42;;;;;;;29.73;14.40;;;;;;;0.26;100.00;95764.28;5010819;28;20049;-74
2023/03/01 09:58:57;;;;;;;29.80;13.60;;;;;;;0.32;100.00;95763.50;5011904;28;20050;-74
2023/03/01 10:02:01;;;;;;;33.67;14.63;;;;;;;0.22;100.00;95763.91;4993334;28;20058;-74
2023/03/01 10:04:46;;;;;;;28.88;13.65;;;;;;;0.12;100.00;95761.69;4985020;28;20061;-74
2023/03/01 10:07:24;;;;;;;22.33;10.82;;;;;;;0.16;100.00;95757.72;5009569;28;20616;-74
2023/03/01 10:09:49;;;;;;;28.88;14.00;;;;;;;0.37;100.00;95755.94;5009363;28;20046;-75
2023/03/01 10:12:20;;;;;;;29.88;12.93;;;;;;;0.37;100.00;95758.50;5009979;28;20539;-75
2023/03/01 10:15:03;;;;;;;28.83;14.23;;;;;;;0.41;100.00;95757.13;5008932;28;20038;-75
2023/03/01 10:17:41;;;;;;;29.15;13.88;;;;;;;0.44;100.00;95755.94;5008416;28;20057;-75
2023/03/01 10:20:24;;;;;;;28.95;14.45;;;;;;;0.40;100.00;95744.38;5005361;28;20038;-75
2023/03/01 10:22:52;;;;;;;30.45;13.88;;;;;;;0.66;100.00;95743.56;5002700;28;20596;-75
2023/03/01 10:25:42;;;;;;;29.80;14.15;;;;;;;0.75;100.00;95741.56;5009129;28;20656;-75
2023/03/01 10:28:40;;;;;;;29.92;13.77;;;;;;;0.77;100.00;95749.94;5004037;28;20068;-75
2023/03/01 10:31:13;;;;;;;31.98;15.13;;;;;;;0.81;100.00;95741.56;4975814;28;20668;-75
2023/03/01 10:33:42;;;;;;;30.92;15.02;;;;;;;0.88;100.00;95745.94;5000691;28;20505;-75
2023/03/01 10:36:08;;;;;;;32.83;14.57;;;;;;;0.98;100.00;95751.53;5009387;28;20046;-75
2023/03/01 10:38:54;;;;;;;31.48;15.50;;;;;;;1.10;100.00;95744.69;5008136;28;20064;-74
2023/03/01 10:41:24;;;;;;;31.63;14.52;;;;;;;1.94;100.00;95739.56;5009459;28;20061;-75
2023/03/01 10:43:56;;;;;;;29.50;14.68;;;;;;;1.84;100.00;95739.22;5004140;28;20038;-74
2023/03/01 10:46:36;;;;;;;33.85;14.20;;;;;;;2.25;100.00;95741.34;5010489;28;20038;-75
2023/03/01 10:49:05;;;;;;;32.17;14.52;;;;;;;2.14;100.00;95744.66;5011452;28;20038;-75
2023/03/01 10:51:30;;;;;;;30.33;14.93;;;;;;;2.13;100.00;95727.47;5011912;28;20045;-74
2023/03/01 10:53:56;;;;;;;28.67;13.55;;;;;;;3.23;100.00;95720.91;5011756;28;20417;-75
2023/03/01 10:56:22;;;;;;;32.88;14.43;;;;;;;3.82;100.00;95707.34;5003793;28;20047;-75
2023/03/01 10:59:05;;;;;;;28.08;12.35;;;;;;;4.45;100.00;95705.22;5012928;28;20041;-75
2023/03/01 11:01:35;;;;;;;20.95;10.88;;;;;;;3.78;100.00;95703.63;5013479;28;20386;-74
2023/03/01 11:04:06;;;;;;;27.77;13.05;;;;;;;3.99;100.00;95695.31;5013483;28;20038;-75
2023/03/01 11:06:33;;;;;;;29.00;12.93;;;;;;;4.41;97.89;95693.66;5013649;28;20046;-75
2023/03/01 11:09:19;;;;;;;27.48;12.88;;;;;;;4.86;97.70;95680.84;5014151;28;20065;-75
2023/03/01 11:11:45;;;;;;;25.83;12.93;;;;;;;5.59;87.08;95683.09;5013618;28;20034;-74
2023/03/01 11:14:17;;;;;;;29.23;14.50;;;;;;;6.44;83.31;95667.53;5010908;28;20045;-76
2023/03/01 11:16:48;;;;;;;27.30;13.00;;;;;;;5.98;87.30;95664.97;5006699;28;20069;-75
2023/03/01 11:19:17;;;;;;;26.98;13.35;;;;;;;6.17;86.36;95662.16;5012826;28;20054;-75